Bei Facebook empfehlenBei Twitter postenGoogle plusPinterest

Das Wetter im Erzgebirge am 18.09.2015

Wetter und Klima am 18.09.2015 Holzhau im Erzgebirge (630m ü.NN)
Letzte gemessene Temperatur und Uhrzeit der Messung23:45:00 Uhr8.40 °C
Temperatur (Maximum / Höchstwert) und Uhrzeit der Messung14:30:00 Uhr18.80 °C
Temperatur (Minimum / Tiefstwert) und Uhrzeit der Messung07:00:007.60 °C
Errechneter Absolutwert der Temperaturschwankungen zwischen Tmin und Tmax des Tages11.20 K
Errechnete Tagesmitteltemperatur11.99583 °C
Gesamt - Niederschlag des Tages (in flüssiger Form)0.00 Liter / m²
Luftdruck (Maximum / Höchstwert) und Zeitpunkt der Messung23:45:00 Uhr1017.10 hPa
Luftdruck (Minimum / Tiefstwert) und Zeitpunkt der Messung00:15:00 Uhr1009.40 hPa
Errechneter Absolutwert der Luftdruckschwankungen des Tages7.70 hPa
Höchste gemessene Windgeschwindigkeit und Uhrzeit der Messung01:30:00 Uhr11.88 km/h
Errechnete Windhäufigkeit in Relation zu den Messwerten des Tages15.62500 %
Niedrigste Windkühle (Windchill) und Zeitpunkt der Messung07:00:00 Uhr7.60 °C
Taupunkt (Maximum / Höchstwert) und Uhrzeit der Messung12:45:00 Uhr12.90 °C
Taupunkt (Minimum / Tiefstwert) und Uhrzeit der Messung23:00:006.40 °C
Anzahl der automatisch eingelesenen Messwerte 96

Detaillierte Wetter- und Klima- Messwerte für den 18.09.2015 in Holzhau im Erzgebirge (630m ü.NN)
ZeitTemperaturLuftdruckRel. LuftfeuchteWindWindrichtungWindchillTaupunktNiederschlag l/m²
23:45:008.40 °C1017.10 hPa90.00 %6.90 °C 
23:30:008.30 °C1017.00 hPa90.00 %6.80 °C 
23:15:008.10 °C1017.10 hPa90.00 %6.60 °C 
23:00:008.10 °C1016.90 hPa89.00 %6.40 °C 
22:45:008.20 °C1016.80 hPa89.00 %6.50 °C 
22:30:008.40 °C1016.70 hPa89.00 %6.70 °C 
22:15:008.50 °C1016.60 hPa88.00 %6.60 °C 
22:00:008.90 °C1016.60 hPa88.00 %7.00 °C 
21:45:009.30 °C1016.40 hPa87.00 %7.30 °C 
21:30:009.80 °C1016.40 hPa87.00 %7.70 °C 
21:15:0010.20 °C1016.50 hPa86.00 %8.00 °C 
21:00:0010.30 °C1016.30 hPa86.00 %8.10 °C 
20:45:0010.50 °C1016.10 hPa85.00 %8.10 °C 
20:30:0011.00 °C1016.10 hPa84.00 %8.40 °C 
20:15:0011.40 °C1016.10 hPa84.00 %8.80 °C 
20:00:0011.70 °C1016.10 hPa83.00 %8.90 °C 
19:45:0012.10 °C1015.90 hPa82.00 %9.10 °C 
19:30:0012.80 °C1015.60 hPa81.00 %9.60 °C 
19:15:0013.30 °C1015.50 hPa80.00 %9.90 °C 
19:00:0013.70 °C1015.40 hPa78.00 %9.90 °C 
18:45:0014.20 °C1015.60 hPa76.00 %10.00 °C 
18:30:0015.10 °C1015.30 hPa75.00 %10.70 °C 
18:15:0015.80 °C1015.40 hPa76.00 %11.60 °C 
18:00:0015.30 °C1015.30 hPa76.00 %11.10 °C 
17:45:0015.20 °C1015.30 hPa75.00 %10.80 °C 
17:30:0015.40 °C1015.30 hPa75.00 %11.00 °C 
17:15:0015.60 °C1015.30 hPa74.00 %11.00 °C 
17:00:0016.10 °C1015.30 hPa74.00 %4.68 km/hSSW16.10 °C11.50 °C 
16:45:0016.30 °C1015.30 hPa73.00 %11.50 °C 
16:30:0016.20 °C1015.20 hPa73.00 %11.40 °C 
16:15:0016.40 °C1015.30 hPa72.00 %3.60 km/hSW16.40 °C11.30 °C 
16:00:0016.80 °C1015.30 hPa72.00 %11.70 °C 
15:45:0017.20 °C1015.20 hPa69.00 %11.50 °C 
15:30:0017.80 °C1015.20 hPa69.00 %2.88 km/hSSW17.80 °C12.00 °C 
15:15:0017.80 °C1015.20 hPa69.00 %12.00 °C 
15:00:0017.80 °C1015.30 hPa68.00 %2.88 km/hSSW17.80 °C11.80 °C 
14:45:0018.20 °C1015.20 hPa67.00 %12.00 °C 
14:30:0018.80 °C1015.20 hPa67.00 %12.50 °C 
14:15:0018.40 °C1015.00 hPa68.00 %4.68 km/hS18.40 °C12.40 °C 
14:00:0018.40 °C1015.00 hPa69.00 %12.60 °C 
13:45:0018.10 °C1015.10 hPa70.00 %2.52 km/hS18.10 °C12.50 °C 
13:30:0017.90 °C1014.90 hPa72.00 %5.40 km/hSW18.60 °C12.80 °C 
13:15:0017.30 °C1014.70 hPa72.00 %12.20 °C 
13:00:0017.40 °C1014.80 hPa73.00 %12.50 °C 
12:45:0017.40 °C1014.60 hPa75.00 %9.36 km/hWSW17.50 °C12.90 °C 
12:30:0016.30 °C1014.20 hPa77.00 %12.30 °C 
12:15:0015.80 °C1014.40 hPa79.00 %12.20 °C 
12:00:0015.50 °C1014.60 hPa80.00 %12.10 °C 
11:45:0015.30 °C1014.40 hPa83.00 %12.40 °C 
11:30:0014.90 °C1014.40 hPa85.00 %12.40 °C 
11:15:0014.40 °C1014.20 hPa87.00 %12.30 °C 
11:00:0014.10 °C1014.10 hPa89.00 %12.30 °C 
10:45:0013.80 °C1014.00 hPa90.00 %4.32 km/hWSW13.80 °C12.20 °C 
10:30:0013.40 °C1014.20 hPa91.00 %12.00 °C 
10:15:0012.90 °C1013.90 hPa92.00 %11.60 °C 
10:00:0012.40 °C1013.80 hPa92.00 %11.10 °C 
09:45:0012.20 °C1013.50 hPa93.00 %11.10 °C 
09:30:0011.90 °C1013.50 hPa94.00 %11.00 °C 
09:15:0011.60 °C1013.40 hPa94.00 %10.70 °C 
09:00:0011.10 °C1013.30 hPa94.00 %10.20 °C 
08:45:0010.60 °C1012.90 hPa94.00 %9.70 °C 
08:30:009.50 °C1013.00 hPa94.00 %8.60 °C 
08:15:008.90 °C1012.90 hPa93.00 %7.80 °C 
08:00:008.60 °C1012.60 hPa93.00 %7.50 °C 
07:45:008.30 °C1012.50 hPa93.00 %7.20 °C 
07:30:008.10 °C1012.30 hPa93.00 %7.00 °C 
07:15:007.90 °C1012.40 hPa93.00 %6.80 °C 
07:00:007.60 °C1012.30 hPa93.00 %6.50 °C 
06:45:007.70 °C1011.80 hPa93.00 %6.60 °C 
06:30:007.80 °C1011.70 hPa92.00 %6.60 °C 
06:15:007.90 °C1011.70 hPa92.00 %6.70 °C 
06:00:007.90 °C1011.90 hPa92.00 %6.70 °C 
05:45:007.90 °C1012.00 hPa92.00 %6.70 °C 
05:30:008.10 °C1012.00 hPa92.00 %6.90 °C 
05:15:008.10 °C1011.60 hPa92.00 %2.52 km/hOSO8.10 °C6.90 °C 
05:00:008.30 °C1011.60 hPa91.00 %6.90 °C 
04:45:008.30 °C1011.60 hPa91.00 %6.90 °C 
04:30:008.40 °C1011.50 hPa91.00 %7.00 °C 
04:15:008.40 °C1011.60 hPa91.00 %7.00 °C 
04:00:008.40 °C1011.20 hPa91.00 %7.00 °C 
03:45:008.60 °C1011.20 hPa91.00 %7.20 °C 
03:30:008.90 °C1011.20 hPa91.00 %7.50 °C 
03:15:009.20 °C1010.80 hPa91.00 %7.80 °C 
03:00:009.30 °C1011.00 hPa91.00 %7.90 °C 
02:45:009.50 °C1010.80 hPa91.00 %8.10 °C 
02:30:009.50 °C1010.90 hPa91.00 %1.80 km/hWSW9.50 °C8.10 °C 
02:15:009.40 °C1010.50 hPa91.00 %8.00 °C 
02:00:009.50 °C1010.20 hPa91.00 %8.10 °C 
01:45:009.80 °C1010.20 hPa91.00 %8.40 °C 
01:30:009.80 °C1009.90 hPa91.00 %11.88 km/hSW8.10 °C8.40 °C 
01:15:009.80 °C1009.90 hPa90.00 %8.20 °C 
01:00:0010.20 °C1009.90 hPa90.00 %6.12 km/hSW9.70 °C8.60 °C 
00:45:0010.40 °C1009.90 hPa91.00 %9.00 °C 
00:30:0010.50 °C1009.50 hPa91.00 %10.08 km/hSW9.20 °C9.10 °C 
00:15:0010.60 °C1009.40 hPa91.00 %9.20 °C 
00:00:0010.40 °C1009.70 hPa91.00 %4.68 km/hNW10.40 °C9.00 °C 

Permanenter Link zu dieser Seite: Wetter im Erzgebirge am 18.09.2015
Performance-Info: Die Erstellung der Seite / Statistik(en) / Tabelle(n) erforderte 5 Datenbankserver-Abfrage(n) und dauerte 99 Millisekunden. (Dieser Messwert ist von der Gesamt-Auslastung des Servers abhängig.)
Erzgebirge - Wetter | Erzgebirge - Wetter (Mobilgeräte) | Komplette Klimadatenbank